createdAt,value
2019-03-27T00:02:13.990Z,5.07
2019-03-27T00:04:43.776Z,7.07
2019-03-27T00:07:13.607Z,5.07
2019-03-27T00:09:43.365Z,7.13
2019-03-27T00:12:13.277Z,5.90
2019-03-27T00:14:43.133Z,5.33
2019-03-27T00:17:12.994Z,5.57
2019-03-27T00:19:49.876Z,5.90
2019-03-27T00:22:18.210Z,6.00
2019-03-27T00:24:48.690Z,5.50
2019-03-27T00:27:18.535Z,5.40
2019-03-27T00:29:48.554Z,7.87
2019-03-27T00:32:18.275Z,6.43
2019-03-27T00:34:48.149Z,6.00
2019-03-27T00:37:18.144Z,6.27
2019-03-27T00:39:47.885Z,6.97
2019-03-27T00:42:17.758Z,6.10
2019-03-27T00:44:47.715Z,5.57
2019-03-27T00:47:17.486Z,5.77
2019-03-27T00:49:47.391Z,6.40
2019-03-27T00:52:17.226Z,5.17
2019-03-27T00:54:48.850Z,5.03
2019-03-27T00:57:24.585Z,5.50
2019-03-27T00:59:54.498Z,6.43
2019-03-27T01:02:24.418Z,6.10
2019-03-27T01:04:54.343Z,6.57
2019-03-27T01:07:24.828Z,4.93
2019-03-27T01:09:54.754Z,6.20
2019-03-27T01:12:26.084Z,5.97
2019-03-27T01:14:55.946Z,6.90
2019-03-27T01:17:25.841Z,5.70
2019-03-27T01:19:55.809Z,6.70
2019-03-27T01:22:25.746Z,6.47
2019-03-27T01:24:55.702Z,6.87
2019-03-27T01:27:25.671Z,5.90
2019-03-27T01:29:55.565Z,7.53
2019-03-27T01:32:25.490Z,5.63
2019-03-27T01:34:55.338Z,7.70
2019-03-27T01:37:25.288Z,6.00
2019-03-27T01:39:55.160Z,7.33
2019-03-27T01:42:25.133Z,6.77
2019-03-27T01:44:55.047Z,8.87
2019-03-27T01:47:25.099Z,6.83
2019-03-27T01:49:57.329Z,6.57
2019-03-27T01:52:27.309Z,6.73
2019-03-27T01:54:58.540Z,6.73
2019-03-27T01:57:28.353Z,6.03
2019-03-27T01:59:58.395Z,6.60
2019-03-27T02:02:28.238Z,6.93
2019-03-27T02:04:58.189Z,6.47
2019-03-27T02:07:28.109Z,6.37
2019-03-27T02:09:57.945Z,7.60
2019-03-27T02:12:27.768Z,7.33
2019-03-27T12:33:23.968Z,4.25
2019-03-27T12:35:53.789Z,5.47
2019-03-27T12:38:23.581Z,5.28
2019-03-27T12:40:53.327Z,5.00
2019-03-27T12:43:23.227Z,6.42
2019-03-27T12:45:53.064Z,5.85
2019-03-27T12:48:22.939Z,5.25
2019-03-27T12:50:52.686Z,4.05
2019-03-27T12:53:22.420Z,4.55
2019-03-27T12:55:52.174Z,5.22
2019-03-27T12:58:21.935Z,4.62
2019-03-27T13:00:51.741Z,4.28
2019-03-27T13:03:21.552Z,3.72
2019-03-27T13:05:51.304Z,3.98
2019-03-27T13:08:21.068Z,14.07
2019-03-27T13:10:50.823Z,5.35
2019-03-27T13:13:20.643Z,4.00
2019-03-27T13:15:50.458Z,4.95
2019-03-27T13:18:20.302Z,4.33
2019-03-27T13:20:50.042Z,5.15
2019-03-27T13:23:19.898Z,5.42
2019-03-27T13:25:49.558Z,6.25
2019-03-27T13:28:19.744Z,4.33
2019-03-27T13:30:49.610Z,5.72
2019-03-27T13:33:19.347Z,3.75
2019-03-27T13:35:49.206Z,6.55
2019-03-27T13:38:18.990Z,5.17
2019-03-27T13:40:48.765Z,10.95
2019-03-27T13:43:37.396Z,4.45
2019-03-27T13:46:07.145Z,4.33
2019-03-27T13:48:36.965Z,4.30
2019-03-27T13:51:06.744Z,3.87
2019-03-27T13:53:36.587Z,3.30
2019-03-27T13:56:06.373Z,4.85
2019-03-27T13:58:36.185Z,5.12
2019-03-27T14:01:08.741Z,11.33
2019-03-27T14:03:37.441Z,7.20
2019-03-27T14:06:07.198Z,6.83
2019-03-27T14:08:36.990Z,3.80
2019-03-27T14:11:06.828Z,5.25
2019-03-27T14:13:36.822Z,4.87
2019-03-27T14:16:07.312Z,5.22
2019-03-27T14:18:37.063Z,4.17
2019-03-27T14:21:06.783Z,5.33
2019-03-27T14:23:36.449Z,5.28
2019-03-27T14:26:06.219Z,4.53
2019-03-27T14:28:36.052Z,4.67
2019-03-27T14:31:05.808Z,3.70
2019-03-27T14:33:35.551Z,4.33
2019-03-27T14:36:05.457Z,4.40
2019-03-27T14:38:35.252Z,4.17
2019-03-27T14:41:05.056Z,4.17
2019-03-27T14:43:35.898Z,3.95
2019-03-27T14:46:05.706Z,4.28
2019-03-27T14:48:35.559Z,4.70
2019-03-27T14:51:05.369Z,4.22
2019-03-27T14:53:35.094Z,3.58
2019-03-27T14:56:04.869Z,4.33
2019-03-27T14:58:34.654Z,3.87
2019-03-27T15:01:04.480Z,4.55
2019-03-27T15:03:34.644Z,4.10
2019-03-27T15:06:04.378Z,3.87
2019-03-27T15:08:34.213Z,3.62
2019-03-27T15:11:04.030Z,3.45
2019-03-27T15:13:33.877Z,3.92
2019-03-27T15:16:03.743Z,3.58
2019-03-27T15:18:33.476Z,4.20
2019-03-27T15:21:03.171Z,3.12
2019-03-27T15:23:32.985Z,3.95
2019-03-27T15:26:03.141Z,3.40
2019-03-27T15:28:32.998Z,3.87
2019-03-27T15:31:02.736Z,3.90
2019-03-27T15:33:32.599Z,3.42
2019-03-27T15:36:02.417Z,3.30
2019-03-27T15:38:32.308Z,3.30
2019-03-27T15:41:02.099Z,3.98
2019-03-27T15:43:31.946Z,3.10
2019-03-27T15:46:01.689Z,3.52
2019-03-27T15:48:31.445Z,3.50
2019-03-27T15:51:01.213Z,4.50
2019-03-27T15:53:31.024Z,3.45
2019-03-27T15:56:01.226Z,3.25
2019-03-27T15:58:30.976Z,3.42
2019-03-27T16:01:00.787Z,4.42
2019-03-27T16:03:30.587Z,5.25
2019-03-27T16:06:00.384Z,6.95
2019-03-27T16:08:30.183Z,3.22
2019-03-27T16:10:59.994Z,3.67
2019-03-27T16:13:29.991Z,4.15
2019-03-27T16:15:59.748Z,4.90
2019-03-27T16:18:29.978Z,3.95
2019-03-27T16:21:00.158Z,3.52
2019-03-27T16:23:32.342Z,2.40
2019-03-27T16:26:02.204Z,4.42
2019-03-27T16:28:32.301Z,3.15
2019-03-27T16:31:04.717Z,2.95
2019-03-27T16:33:34.984Z,2.62
2019-03-27T16:36:05.195Z,2.27
2019-03-27T16:38:35.342Z,2.10
2019-03-27T16:41:05.560Z,2.40
2019-03-27T16:43:35.726Z,2.80
2019-03-27T16:46:05.834Z,2.40
2019-03-27T16:48:35.908Z,2.60
2019-03-27T16:51:06.035Z,2.23
2019-03-27T16:53:36.183Z,2.77
2019-03-27T16:56:06.424Z,2.45
2019-03-27T16:58:36.441Z,2.27
2019-03-27T17:01:06.651Z,2.72
2019-03-27T17:03:36.477Z,3.30
2019-03-27T17:06:06.259Z,2.80
2019-03-27T17:08:36.001Z,2.77
2019-03-27T17:11:08.086Z,2.95
2019-03-27T17:13:42.186Z,3.58
2019-03-27T17:16:12.079Z,2.62
2019-03-27T17:18:41.715Z,2.92
2019-03-27T17:21:11.454Z,4.47
2019-03-27T17:23:41.152Z,3.12
2019-03-27T17:26:10.945Z,2.30
2019-03-27T17:28:40.800Z,3.40
2019-03-27T17:31:10.752Z,2.60
2019-03-27T17:33:40.663Z,2.58
2019-03-27T17:36:10.472Z,3.50
2019-03-27T17:38:40.193Z,3.70
2019-03-27T17:41:09.906Z,3.42
2019-03-27T17:43:39.737Z,3.10
2019-03-27T17:46:12.018Z,3.10
2019-03-27T17:48:41.782Z,3.40
2019-03-27T17:51:11.532Z,3.20
2019-03-27T17:53:41.254Z,2.90
2019-03-27T17:56:11.019Z,2.70
2019-03-27T17:58:40.767Z,3.45
2019-03-27T18:01:10.526Z,3.40
2019-03-27T18:03:40.508Z,3.20
2019-03-27T18:06:10.359Z,4.03
2019-03-27T18:08:40.273Z,4.28
2019-03-27T18:11:10.078Z,3.62
2019-03-27T18:13:39.919Z,4.25
2019-03-27T18:16:09.878Z,3.80
2019-03-27T18:18:39.735Z,3.65
2019-03-27T18:21:09.514Z,3.67
2019-03-27T18:23:46.396Z,3.72
2019-03-27T18:26:12.101Z,4.08
2019-03-27T18:28:42.079Z,3.92
2019-03-27T18:31:11.920Z,4.05
2019-03-27T18:33:41.827Z,4.12
2019-03-27T18:36:11.595Z,3.77
2019-03-27T18:38:41.410Z,4.43
2019-03-27T18:41:11.191Z,3.92
2019-03-27T18:43:41.054Z,3.72
2019-03-27T18:46:10.885Z,4.53
2019-03-27T18:48:42.629Z,3.83
2019-03-27T18:51:12.513Z,4.55
2019-03-27T18:53:42.448Z,4.03
2019-03-27T18:56:12.183Z,3.73
2019-03-27T18:58:41.979Z,4.80
2019-03-27T19:01:11.722Z,4.47
2019-03-27T19:03:41.473Z,4.83
2019-03-27T19:06:11.222Z,5.65
2019-03-27T19:08:41.049Z,4.72
2019-03-27T19:11:10.903Z,5.45
2019-03-27T19:13:40.711Z,4.62
2019-03-27T19:16:15.185Z,4.40
2019-03-27T19:18:45.023Z,4.65
2019-03-27T19:21:15.112Z,4.17
2019-03-27T19:23:44.923Z,4.35
2019-03-27T19:26:14.694Z,4.93
2019-03-27T19:28:44.467Z,4.78
2019-03-27T19:31:14.310Z,4.78
2019-03-27T19:33:44.113Z,4.92
2019-03-27T19:36:13.863Z,3.93
2019-03-27T19:38:44.994Z,4.53
2019-03-27T19:41:14.780Z,4.10
2019-03-27T19:43:44.751Z,6.90
2019-03-27T19:46:14.652Z,4.20
2019-03-27T19:48:44.445Z,4.17
2019-03-27T19:51:14.312Z,5.20
2019-03-27T19:53:44.138Z,3.77
2019-03-27T19:56:14.014Z,4.70
2019-03-27T19:58:43.875Z,4.70
2019-03-27T20:01:13.660Z,4.85
2019-03-27T20:03:43.744Z,4.15
2019-03-27T20:06:13.506Z,3.98
2019-03-27T20:08:43.271Z,4.58
2019-03-27T20:11:13.056Z,3.50
2019-03-27T20:13:42.822Z,3.43
2019-03-27T20:16:12.669Z,4.25
2019-03-27T20:18:42.463Z,4.33
2019-03-27T20:21:12.266Z,4.45
2019-03-27T20:23:42.202Z,4.58
2019-03-27T20:26:11.980Z,3.75
2019-03-27T20:28:41.658Z,4.80
2019-03-27T20:31:11.413Z,4.92
2019-03-27T20:33:41.218Z,5.53
2019-03-27T20:36:13.263Z,4.42
2019-03-27T20:38:43.147Z,5.30
2019-03-27T20:41:18.974Z,5.27
2019-03-27T20:43:48.794Z,4.83
2019-03-27T20:46:26.358Z,4.67
2019-03-27T20:48:51.513Z,4.70
2019-03-27T20:51:21.430Z,4.50
2019-03-27T20:53:51.238Z,4.05
2019-03-27T20:56:21.004Z,4.58
2019-03-27T20:58:50.726Z,4.30
2019-03-27T21:01:20.551Z,4.30
2019-03-27T21:03:50.388Z,3.90
2019-03-27T21:06:20.200Z,5.42
2019-03-27T21:08:50.095Z,4.62
2019-03-27T21:11:19.959Z,12.53
2019-03-27T21:13:49.740Z,8.28
2019-03-27T21:16:19.687Z,4.65
2019-03-27T21:18:49.516Z,4.42
2019-03-27T21:21:19.296Z,4.70
2019-03-27T21:23:49.105Z,5.22
2019-03-27T21:26:18.913Z,5.28
2019-03-27T21:28:48.775Z,5.80
2019-03-27T21:31:18.573Z,4.30
2019-03-27T21:33:48.469Z,4.50
2019-03-27T21:36:18.391Z,5.33
2019-03-27T21:38:48.266Z,5.10
2019-03-27T21:41:18.308Z,5.55
2019-03-27T21:43:50.226Z,5.30
2019-03-27T21:46:20.167Z,4.90
2019-03-27T21:48:50.103Z,4.87
2019-03-27T21:51:19.976Z,5.00
2019-03-27T21:53:50.820Z,5.70
2019-03-27T21:56:20.905Z,6.30
2019-03-27T21:58:50.801Z,6.28
2019-03-27T22:01:20.668Z,7.67
2019-03-27T22:03:50.542Z,7.65
2019-03-27T22:06:20.455Z,8.03
2019-03-27T22:08:50.364Z,7.23
2019-03-27T22:11:20.263Z,7.77
2019-03-27T22:13:50.150Z,9.00
2019-03-27T22:16:20.066Z,8.67
2019-03-27T22:18:49.971Z,7.80
2019-03-27T22:21:22.266Z,8.53
2019-03-27T22:23:52.171Z,10.45
2019-03-27T22:26:22.000Z,7.72
2019-03-27T22:28:51.929Z,7.58
2019-03-27T22:31:21.858Z,8.93
2019-03-27T22:33:51.748Z,8.07
2019-03-27T22:36:21.683Z,7.27
2019-03-27T22:38:51.738Z,9.57
2019-03-27T22:41:21.664Z,8.63
2019-03-27T22:43:51.843Z,8.43
2019-03-27T22:46:21.774Z,8.68
2019-03-27T22:48:51.669Z,7.58
2019-03-27T22:51:21.630Z,8.00
2019-03-27T22:53:51.474Z,7.53
2019-03-27T22:56:21.356Z,7.87
2019-03-27T22:58:51.223Z,7.57
2019-03-27T23:01:21.103Z,7.47
2019-03-27T23:03:51.023Z,7.80
2019-03-27T23:06:20.970Z,7.87
2019-03-27T23:08:50.777Z,7.47
2019-03-27T23:11:20.660Z,6.77
2019-03-27T23:13:50.855Z,7.10
2019-03-27T23:16:20.803Z,5.83
2019-03-27T23:18:50.694Z,6.73
2019-03-27T23:21:20.543Z,6.95
2019-03-27T23:23:50.416Z,6.73
2019-03-27T23:26:20.321Z,6.67
2019-03-27T23:28:50.379Z,7.00
2019-03-27T23:31:20.310Z,5.87
2019-03-27T23:33:50.165Z,6.50
2019-03-27T23:36:20.003Z,7.10
2019-03-27T23:38:49.802Z,6.55
2019-03-27T23:41:19.549Z,5.97
2019-03-27T23:43:49.437Z,5.80
2019-03-27T23:46:19.403Z,6.30
2019-03-27T23:48:49.467Z,6.25
2019-03-27T23:51:20.515Z,5.30
2019-03-27T23:53:50.423Z,6.43
2019-03-27T23:56:21.560Z,6.47
2019-03-27T23:58:51.888Z,6.33
